createdAt,value
2022-11-17T00:00:06.350Z,94.69
2022-11-17T00:00:16.378Z,94.69
2022-11-17T00:00:26.374Z,94.69
2022-11-17T00:00:36.353Z,94.69
2022-11-17T00:00:46.375Z,94.63
2022-11-17T00:00:56.349Z,94.69
2022-11-17T00:01:06.346Z,94.59
2022-11-17T00:01:16.370Z,94.59
2022-11-17T00:01:26.360Z,94.59
2022-11-17T00:01:36.359Z,94.59
2022-11-17T00:01:46.377Z,94.69
2022-11-17T00:01:57.413Z,94.69
2022-11-17T00:02:06.417Z,94.69
2022-11-17T00:02:16.454Z,94.79
2022-11-17T00:02:26.464Z,94.69
2022-11-17T00:02:36.418Z,94.79
2022-11-17T00:02:46.570Z,94.69
2022-11-17T00:02:56.379Z,94.69
2022-11-17T00:03:06.350Z,94.69
2022-11-17T00:03:16.412Z,94.69
2022-11-17T00:03:26.344Z,94.69
2022-11-17T00:03:36.682Z,94.73
2022-11-17T00:03:46.343Z,94.69
2022-11-17T00:03:59.340Z,94.59
2022-11-17T00:04:06.486Z,94.59
2022-11-17T00:04:16.345Z,94.59
2022-11-17T00:04:26.366Z,94.48
2022-11-17T00:04:36.373Z,94.59
2022-11-17T00:04:46.328Z,94.48
2022-11-17T00:04:56.336Z,94.44
2022-11-17T00:05:06.361Z,94.48
2022-11-17T00:05:16.345Z,94.48
2022-11-17T00:05:26.348Z,94.48
2022-11-17T00:05:36.332Z,94.48
2022-11-17T00:05:46.331Z,94.53
2022-11-17T00:05:56.340Z,94.48
2022-11-17T00:06:06.526Z,94.48
2022-11-17T00:06:16.338Z,94.28
2022-11-17T00:06:26.346Z,94.18
2022-11-17T00:06:36.328Z,94.01
2022-11-17T00:06:46.437Z,93.87
2022-11-17T00:06:56.411Z,93.76
2022-11-17T00:07:06.425Z,93.80
2022-11-17T00:07:16.352Z,93.66
2022-11-17T00:07:26.418Z,93.70
2022-11-17T00:07:36.389Z,93.66
2022-11-17T00:07:47.315Z,93.55
2022-11-17T00:07:56.395Z,93.55
2022-11-17T00:08:06.343Z,93.45
2022-11-17T00:08:16.442Z,93.35
2022-11-17T00:08:26.510Z,93.39
2022-11-17T00:08:36.317Z,93.29
2022-11-17T00:08:46.349Z,93.29
2022-11-17T00:08:56.332Z,93.35
2022-11-17T00:09:06.319Z,93.49
2022-11-17T00:09:16.345Z,93.60
2022-11-17T00:09:26.338Z,93.70
2022-11-17T00:09:36.326Z,93.66
2022-11-17T00:09:46.362Z,93.80
2022-11-17T00:09:56.386Z,93.76
2022-11-17T00:10:06.322Z,93.76
2022-11-17T00:10:16.853Z,93.80
2022-11-17T00:10:26.939Z,93.80
2022-11-17T00:10:36.309Z,93.91
2022-11-17T00:10:46.342Z,93.91
2022-11-17T00:10:56.349Z,94.01
2022-11-17T00:11:06.328Z,94.01
2022-11-17T00:11:16.335Z,93.95
2022-11-17T00:11:26.329Z,94.01
2022-11-17T00:11:36.308Z,94.01
2022-11-17T00:11:46.821Z,93.97
2022-11-17T00:11:56.306Z,93.97
2022-11-17T00:12:06.824Z,94.01
2022-11-17T00:12:22.096Z,94.01
2022-11-17T00:12:31.480Z,94.01
2022-11-17T00:12:36.329Z,94.12
2022-11-17T00:12:46.349Z,94.12
2022-11-17T00:12:56.315Z,94.22
2022-11-17T00:13:06.379Z,94.18
2022-11-17T00:13:16.316Z,94.22
2022-11-17T00:13:26.321Z,94.32
2022-11-17T00:13:36.667Z,94.38
2022-11-17T00:13:46.307Z,94.48
2022-11-17T00:13:56.306Z,94.53
2022-11-17T00:14:06.328Z,94.63
2022-11-17T00:14:16.324Z,94.63
2022-11-17T00:14:26.392Z,94.73
2022-11-17T00:14:36.293Z,94.78
2022-11-17T00:14:46.294Z,94.84
2022-11-17T00:14:56.297Z,94.98
2022-11-17T00:15:06.336Z,94.79
2022-11-17T00:15:16.312Z,94.84
2022-11-17T00:15:26.298Z,94.84
2022-11-17T00:15:36.344Z,94.78
2022-11-17T00:15:46.294Z,94.69
2022-11-17T00:15:56.380Z,94.84
2022-11-17T00:16:06.294Z,94.89
2022-11-17T00:16:16.295Z,94.73
2022-11-17T00:16:26.849Z,94.89
2022-11-17T00:16:36.303Z,94.73
2022-11-17T00:16:46.292Z,94.63
2022-11-17T00:16:56.296Z,94.73
2022-11-17T00:17:06.285Z,94.63
2022-11-17T00:17:16.282Z,94.78
2022-11-17T00:17:26.287Z,94.73
2022-11-17T00:17:36.295Z,94.63
2022-11-17T00:17:46.327Z,94.68
2022-11-17T00:17:56.307Z,94.43
2022-11-17T00:18:06.275Z,94.32
2022-11-17T00:18:16.329Z,94.37
2022-11-17T00:18:26.845Z,94.37
2022-11-17T00:18:36.457Z,94.37
2022-11-17T00:18:46.315Z,94.37
2022-11-17T00:18:56.282Z,94.47
2022-11-17T00:19:06.324Z,94.53
2022-11-17T00:19:16.289Z,94.57
2022-11-17T00:19:26.280Z,94.57
2022-11-17T00:19:36.269Z,94.68
2022-11-17T00:19:46.810Z,94.78
2022-11-17T00:19:56.271Z,94.78
2022-11-17T00:20:06.273Z,94.78
2022-11-17T00:20:16.303Z,94.73
2022-11-17T00:20:26.277Z,94.68
2022-11-17T00:20:36.824Z,94.68
2022-11-17T00:20:46.315Z,94.78
2022-11-17T00:20:56.271Z,94.68
2022-11-17T00:21:06.271Z,94.68
2022-11-17T00:21:16.263Z,94.57
2022-11-17T00:21:26.311Z,94.47
2022-11-17T00:21:36.275Z,94.37
2022-11-17T00:21:46.268Z,94.43
2022-11-17T00:21:56.281Z,94.47
2022-11-17T00:22:06.282Z,94.68
2022-11-17T00:22:16.270Z,94.78
2022-11-17T00:22:26.261Z,94.89
2022-11-17T00:22:36.317Z,95.03
2022-11-17T00:22:46.371Z,95.09
2022-11-17T00:22:56.282Z,95.09
2022-11-17T00:23:06.308Z,95.09
2022-11-17T00:23:16.255Z,95.19
2022-11-17T00:23:26.312Z,95.19
2022-11-17T00:23:36.637Z,95.19
2022-11-17T00:23:46.256Z,95.19
2022-11-17T00:23:56.268Z,95.24
2022-11-17T00:24:06.822Z,95.19
2022-11-17T00:24:16.332Z,95.29
2022-11-17T00:24:26.269Z,95.29
2022-11-17T00:24:36.250Z,95.40
2022-11-17T00:24:46.840Z,95.40
2022-11-17T00:24:56.273Z,95.40
2022-11-17T00:25:06.266Z,95.50
2022-11-17T00:25:16.263Z,95.50
2022-11-17T00:25:26.283Z,95.56
2022-11-17T00:25:36.260Z,95.65
2022-11-17T00:25:46.275Z,95.71
2022-11-17T00:25:56.267Z,95.71
2022-11-17T00:26:06.251Z,95.81
2022-11-17T00:26:16.250Z,95.81
2022-11-17T00:26:26.283Z,95.81
2022-11-17T00:26:36.278Z,95.71
2022-11-17T00:26:46.914Z,95.92
2022-11-17T00:26:56.346Z,95.81
2022-11-17T00:27:06.251Z,95.92
2022-11-17T00:27:16.243Z,95.71
2022-11-17T00:27:26.271Z,95.71
2022-11-17T00:27:36.363Z,95.71
2022-11-17T00:27:46.263Z,95.61
2022-11-17T00:27:56.241Z,95.71
2022-11-17T00:28:06.243Z,95.61
2022-11-17T00:28:16.242Z,95.50
2022-11-17T00:28:26.257Z,95.50
2022-11-17T00:28:36.367Z,95.50
2022-11-17T00:28:46.243Z,95.40
2022-11-17T00:28:56.816Z,95.29
2022-11-17T00:29:06.253Z,95.29
2022-11-17T00:29:16.277Z,95.29
2022-11-17T00:29:26.248Z,95.15
2022-11-17T00:29:39.162Z,95.19
2022-11-17T00:29:46.266Z,95.19
2022-11-17T00:29:56.242Z,95.34
2022-11-17T00:30:06.324Z,95.29
2022-11-17T00:30:16.254Z,95.40
2022-11-17T00:30:26.247Z,95.54
2022-11-17T00:30:36.247Z,95.50
2022-11-17T00:30:46.283Z,95.61
2022-11-17T00:30:56.858Z,95.61
2022-11-17T00:31:06.345Z,95.61
2022-11-17T00:31:16.234Z,95.61
2022-11-17T00:31:26.275Z,95.65
2022-11-17T00:31:36.241Z,95.65
2022-11-17T00:31:46.389Z,95.50
2022-11-17T00:31:56.226Z,95.46
2022-11-17T00:32:06.245Z,95.40
2022-11-17T00:32:16.229Z,95.34
2022-11-17T00:32:26.225Z,95.19
2022-11-17T00:32:36.234Z,95.29
2022-11-17T00:32:46.238Z,95.29
2022-11-17T00:32:56.823Z,95.34
2022-11-17T00:33:06.870Z,95.34
2022-11-17T00:33:16.211Z,95.40
2022-11-17T00:33:26.838Z,95.44
2022-11-17T00:33:36.597Z,95.40
2022-11-17T00:33:46.257Z,95.40
2022-11-17T00:33:56.291Z,95.40
2022-11-17T00:34:06.300Z,95.40
2022-11-17T00:34:16.208Z,95.40
2022-11-17T00:34:26.225Z,95.44
2022-11-17T00:34:36.226Z,95.40
2022-11-17T00:34:46.252Z,95.44
2022-11-17T00:34:56.245Z,95.34
2022-11-17T00:35:06.335Z,95.29
2022-11-17T00:35:16.817Z,95.24
2022-11-17T00:35:26.227Z,95.24
2022-11-17T00:35:36.208Z,95.19
2022-11-17T00:35:46.227Z,95.19
2022-11-17T00:35:56.223Z,95.19
2022-11-17T00:36:06.212Z,95.24
2022-11-17T00:36:16.344Z,95.24
2022-11-17T00:36:26.236Z,95.09
2022-11-17T00:36:36.203Z,95.09
2022-11-17T00:36:46.204Z,95.09
2022-11-17T00:36:56.237Z,95.09
2022-11-17T00:37:06.206Z,95.14
2022-11-17T00:37:16.823Z,95.19
2022-11-17T00:37:26.207Z,95.19
2022-11-17T00:37:36.194Z,95.34
2022-11-17T00:37:46.198Z,95.40
2022-11-17T00:37:56.213Z,95.40
2022-11-17T00:38:06.823Z,95.40
2022-11-17T00:38:16.208Z,95.54
2022-11-17T00:38:26.204Z,95.44
2022-11-17T00:38:36.207Z,95.50
2022-11-17T00:38:46.208Z,95.50
2022-11-17T00:38:56.248Z,95.44
2022-11-17T00:39:06.835Z,95.44
2022-11-17T00:39:16.832Z,95.44
2022-11-17T00:39:26.317Z,95.34
2022-11-17T00:39:36.203Z,95.28
2022-11-17T00:39:46.240Z,95.24
2022-11-17T00:40:00.486Z,95.19
2022-11-17T00:40:06.188Z,95.24
2022-11-17T00:40:16.236Z,95.24
2022-11-17T00:40:26.192Z,95.34
2022-11-17T00:40:36.221Z,95.34
2022-11-17T00:40:46.342Z,95.19
2022-11-17T00:40:56.185Z,95.40
2022-11-17T00:41:06.194Z,95.44
2022-11-17T00:41:16.203Z,95.44
2022-11-17T00:41:26.821Z,95.50
2022-11-17T00:41:36.194Z,95.50
2022-11-17T00:41:46.187Z,95.61
2022-11-17T00:41:56.212Z,95.61
2022-11-17T00:42:06.202Z,95.71
2022-11-17T00:42:16.229Z,95.75
2022-11-17T00:42:26.194Z,95.75
2022-11-17T00:42:36.199Z,95.71
2022-11-17T00:42:46.295Z,95.81
2022-11-17T00:42:56.183Z,95.81
2022-11-17T00:43:06.203Z,95.86
2022-11-17T00:43:16.175Z,95.86
2022-11-17T00:43:26.221Z,95.96
2022-11-17T00:43:36.521Z,95.81
2022-11-17T00:43:46.186Z,95.61
2022-11-17T00:43:56.182Z,95.50
2022-11-17T00:44:06.250Z,95.40
2022-11-17T00:44:16.197Z,95.24
2022-11-17T00:44:26.211Z,95.19
2022-11-17T00:44:36.212Z,95.24
2022-11-17T00:44:46.167Z,95.09
2022-11-17T00:44:56.207Z,95.19
2022-11-17T00:45:06.164Z,95.19
2022-11-17T00:45:16.190Z,95.24
2022-11-17T00:45:26.197Z,95.19
2022-11-17T00:45:36.835Z,95.19
2022-11-17T00:45:46.328Z,95.34
2022-11-17T00:45:56.312Z,95.40
2022-11-17T00:46:06.169Z,95.44
2022-11-17T00:46:16.168Z,95.50
2022-11-17T00:46:26.209Z,95.50
2022-11-17T00:46:36.205Z,95.50
2022-11-17T00:46:46.189Z,95.65
2022-11-17T00:46:56.205Z,95.50
2022-11-17T00:47:06.165Z,95.50
2022-11-17T00:47:16.818Z,95.44
2022-11-17T00:47:26.830Z,95.40
2022-11-17T00:47:36.982Z,95.40
2022-11-17T00:47:46.820Z,95.50
2022-11-17T00:47:56.197Z,95.54
2022-11-17T00:48:06.171Z,95.54
2022-11-17T00:48:16.191Z,95.65
2022-11-17T00:48:26.212Z,95.61
2022-11-17T00:48:36.153Z,95.50
2022-11-17T00:48:46.174Z,95.61
2022-11-17T00:48:56.146Z,95.71
2022-11-17T00:49:06.166Z,95.71
2022-11-17T00:49:16.248Z,95.71
2022-11-17T00:49:26.148Z,95.75
2022-11-17T00:49:36.163Z,95.71
2022-11-17T00:49:46.838Z,95.65
2022-11-17T00:49:56.143Z,95.61
2022-11-17T00:50:06.161Z,95.80
2022-11-17T00:50:16.154Z,95.65
2022-11-17T00:50:26.146Z,95.61
2022-11-17T00:50:36.842Z,95.75
2022-11-17T00:50:46.162Z,95.86
2022-11-17T00:50:56.919Z,95.86
2022-11-17T00:51:06.185Z,95.96
2022-11-17T00:51:16.208Z,95.96
2022-11-17T00:51:26.185Z,95.92
2022-11-17T00:51:36.239Z,95.96
2022-11-17T00:51:46.202Z,95.96
2022-11-17T00:51:56.367Z,95.96
2022-11-17T00:52:06.829Z,95.92
2022-11-17T00:52:16.144Z,95.81
2022-11-17T00:52:26.194Z,95.96
2022-11-17T00:52:36.135Z,96.06
2022-11-17T00:52:46.133Z,96.06
2022-11-17T00:52:56.175Z,96.06
2022-11-17T00:53:06.136Z,96.17
2022-11-17T00:53:16.131Z,96.27
2022-11-17T00:53:26.243Z,96.17
2022-11-17T00:53:36.509Z,96.27
2022-11-17T00:53:46.180Z,96.21
2022-11-17T00:53:56.845Z,96.37
2022-11-17T00:54:06.282Z,96.37
2022-11-17T00:54:16.139Z,96.37
2022-11-17T00:54:26.195Z,96.23
2022-11-17T00:54:36.124Z,96.37
2022-11-17T00:54:46.149Z,96.27
2022-11-17T00:54:56.152Z,96.37
2022-11-17T00:55:06.211Z,96.37
2022-11-17T00:55:16.210Z,96.31
2022-11-17T00:55:26.246Z,96.37
2022-11-17T00:55:36.149Z,96.37
2022-11-17T00:55:46.203Z,96.48
2022-11-17T00:55:56.818Z,96.48
2022-11-17T00:56:06.122Z,96.37
2022-11-17T00:56:16.143Z,96.42
2022-11-17T00:56:26.156Z,96.37
2022-11-17T00:56:36.199Z,96.37
2022-11-17T00:56:46.249Z,96.37
2022-11-17T00:56:56.274Z,96.37
2022-11-17T00:57:06.219Z,96.37
2022-11-17T00:57:16.159Z,96.42
2022-11-17T00:57:26.307Z,96.27
2022-11-17T00:57:36.132Z,96.27
2022-11-17T00:57:46.132Z,96.37
2022-11-17T00:57:56.438Z,96.27
2022-11-17T00:58:06.212Z,96.27
2022-11-17T00:58:16.258Z,96.37
2022-11-17T00:58:26.199Z,96.37
2022-11-17T00:58:36.242Z,96.44
2022-11-17T00:58:46.161Z,96.37
2022-11-17T00:58:56.202Z,96.48
2022-11-17T00:59:06.255Z,96.48
2022-11-17T00:59:16.227Z,96.58
2022-11-17T00:59:26.177Z,96.48
2022-11-17T00:59:36.391Z,96.69
2022-11-17T00:59:46.271Z,96.58
2022-11-17T00:59:56.217Z,96.58
2022-11-17T01:00:06.239Z,96.58
2022-11-17T01:00:16.110Z,96.48
2022-11-17T01:00:26.124Z,96.48
2022-11-17T01:00:36.161Z,96.37
2022-11-17T01:00:46.122Z,96.52
2022-11-17T01:00:56.113Z,96.42
2022-11-17T01:01:06.210Z,96.27
2022-11-17T01:01:16.153Z,96.31
2022-11-17T01:01:26.243Z,96.37
2022-11-17T01:01:36.205Z,96.42
2022-11-17T01:01:46.157Z,96.48
2022-11-17T01:01:56.179Z,96.48
2022-11-17T01:02:06.222Z,96.48
2022-11-17T01:02:16.196Z,96.48
2022-11-17T01:02:26.147Z,96.42
2022-11-17T01:02:36.093Z,96.52
2022-11-17T01:02:46.102Z,96.37
2022-11-17T01:02:56.124Z,96.37
2022-11-17T01:03:06.098Z,96.48
2022-11-17T01:03:16.196Z,96.48
2022-11-17T01:03:26.140Z,96.48
2022-11-17T01:03:36.567Z,96.52
2022-11-17T01:03:46.086Z,96.48
2022-11-17T01:03:56.102Z,96.31
2022-11-17T01:04:06.866Z,96.37
2022-11-17T01:04:16.832Z,96.37
2022-11-17T01:04:26.260Z,96.48
2022-11-17T01:04:36.151Z,96.58
2022-11-17T01:04:46.141Z,96.52
2022-11-17T01:04:56.116Z,96.67
2022-11-17T01:05:06.083Z,96.73
2022-11-17T01:05:16.085Z,96.73
2022-11-17T01:05:31.731Z,96.83
2022-11-17T01:05:36.092Z,96.79
2022-11-17T01:05:46.823Z,96.73
2022-11-17T01:05:56.125Z,96.69
2022-11-17T01:06:06.894Z,96.83
2022-11-17T01:06:16.832Z,96.73
2022-11-17T01:06:26.163Z,96.69
2022-11-17T01:06:36.086Z,96.83
2022-11-17T01:06:46.090Z,96.64
2022-11-17T01:06:56.160Z,96.69
2022-11-17T01:07:06.913Z,96.73
2022-11-17T01:07:16.132Z,96.79
2022-11-17T01:07:26.143Z,96.69
2022-11-17T01:07:36.144Z,96.79
2022-11-17T01:07:46.124Z,96.83
2022-11-17T01:07:56.077Z,96.79
2022-11-17T01:08:06.128Z,96.94
2022-11-17T01:08:16.104Z,96.83
2022-11-17T01:08:26.238Z,96.73
2022-11-17T01:08:36.075Z,96.83
2022-11-17T01:08:46.087Z,96.89
2022-11-17T01:08:56.068Z,96.83
2022-11-17T01:09:06.084Z,96.94
2022-11-17T01:09:16.095Z,96.89
2022-11-17T01:09:26.071Z,97.04
2022-11-17T01:09:36.075Z,97.00
2022-11-17T01:09:46.068Z,96.94
2022-11-17T01:09:56.118Z,96.94
2022-11-17T01:10:06.080Z,96.94
2022-11-17T01:10:16.074Z,96.94
2022-11-17T01:10:26.087Z,96.89
2022-11-17T01:10:36.306Z,97.00
2022-11-17T01:10:46.058Z,97.00
2022-11-17T01:10:56.198Z,97.00
2022-11-17T01:11:06.058Z,97.14
2022-11-17T01:11:16.085Z,97.10
2022-11-17T01:11:26.065Z,97.14
2022-11-17T01:11:36.065Z,97.04
2022-11-17T01:11:46.050Z,97.04
2022-11-17T01:11:56.068Z,97.04
2022-11-17T01:12:06.073Z,97.04
2022-11-17T01:12:16.261Z,97.04
2022-11-17T01:12:26.083Z,97.20
2022-11-17T01:12:36.835Z,97.25
2022-11-17T01:12:46.050Z,97.14
2022-11-17T01:12:56.079Z,97.20
2022-11-17T01:13:06.248Z,97.25
2022-11-17T01:13:16.053Z,97.35
2022-11-17T01:13:26.072Z,97.31
2022-11-17T01:13:36.465Z,97.31
2022-11-17T01:13:46.047Z,97.41
2022-11-17T01:13:56.047Z,97.31
2022-11-17T01:14:06.043Z,97.45
2022-11-17T01:14:16.065Z,97.31
2022-11-17T01:14:26.052Z,97.35
2022-11-17T01:14:36.855Z,97.25
2022-11-17T01:14:46.194Z,97.10
2022-11-17T01:14:56.057Z,97.10
2022-11-17T01:15:06.324Z,97.20
2022-11-17T01:15:16.112Z,97.04
2022-11-17T01:15:26.057Z,96.89
2022-11-17T01:15:36.039Z,97.00
2022-11-17T01:15:46.045Z,97.00
2022-11-17T01:15:56.066Z,97.19
2022-11-17T01:16:06.039Z,97.14
2022-11-17T01:16:16.073Z,97.10
2022-11-17T01:16:26.059Z,97.20
2022-11-17T01:16:36.050Z,97.14
2022-11-17T01:16:46.853Z,97.25
2022-11-17T01:16:56.037Z,97.14
2022-11-17T01:17:06.049Z,97.20
2022-11-17T01:17:16.074Z,97.35
2022-11-17T01:17:26.036Z,97.14
2022-11-17T01:17:36.049Z,97.25
2022-11-17T01:17:46.035Z,97.45
2022-11-17T01:17:56.031Z,97.56
2022-11-17T01:18:06.036Z,97.56
2022-11-17T01:18:16.865Z,97.62
2022-11-17T01:18:26.027Z,97.66
2022-11-17T01:18:36.048Z,97.56
2022-11-17T01:18:46.868Z,97.87
2022-11-17T01:18:56.031Z,97.81
2022-11-17T01:19:06.038Z,97.87
2022-11-17T01:19:16.831Z,97.66
2022-11-17T01:19:26.035Z,97.87
2022-11-17T01:19:36.832Z,97.91
2022-11-17T01:19:46.019Z,97.87
2022-11-17T01:19:56.022Z,97.81
2022-11-17T01:20:06.025Z,97.66
2022-11-17T01:20:16.095Z,97.77
2022-11-17T01:20:26.052Z,97.87
2022-11-17T01:20:36.023Z,98.08
2022-11-17T01:20:46.042Z,98.12
2022-11-17T01:20:56.153Z,98.18
2022-11-17T01:21:06.016Z,98.18
2022-11-17T01:21:16.105Z,98.28
2022-11-17T01:21:26.021Z,98.12
2022-11-17T01:21:36.016Z,98.18
2022-11-17T01:21:46.015Z,98.22
2022-11-17T01:21:56.027Z,98.28
2022-11-17T01:22:06.056Z,98.18
2022-11-17T01:22:16.017Z,98.28
2022-11-17T01:22:26.046Z,98.22
2022-11-17T01:22:36.031Z,98.43
2022-11-17T01:22:46.010Z,98.18
2022-11-17T01:22:56.096Z,98.18
2022-11-17T01:23:06.013Z,98.28
2022-11-17T01:23:16.012Z,98.18
2022-11-17T01:23:26.014Z,98.33
2022-11-17T01:23:36.370Z,98.39
2022-11-17T01:23:46.018Z,98.28
2022-11-17T01:23:56.016Z,98.43
2022-11-17T01:24:06.012Z,98.33
2022-11-17T01:24:16.014Z,98.28
2022-11-17T01:24:26.970Z,98.39
2022-11-17T01:24:36.001Z,98.43
2022-11-17T01:24:46.016Z,98.39
2022-11-17T01:24:56.857Z,98.60
2022-11-17T01:25:06.130Z,98.39
2022-11-17T01:25:16.008Z,98.54
2022-11-17T01:25:26.084Z,98.39
2022-11-17T01:25:36.001Z,98.33
2022-11-17T01:25:46.010Z,98.28
2022-11-17T01:25:56.021Z,98.54
2022-11-17T01:26:06.055Z,98.28
2022-11-17T01:26:16.017Z,98.33
2022-11-17T01:26:26.011Z,98.33
2022-11-17T01:26:35.993Z,98.28
2022-11-17T01:26:46.029Z,98.33
2022-11-17T01:26:56.000Z,98.43
2022-11-17T01:27:06.866Z,98.39
2022-11-17T01:27:16.007Z,98.28
2022-11-17T01:27:25.988Z,98.49
2022-11-17T01:27:36.032Z,98.49
2022-11-17T01:27:46.006Z,98.39
2022-11-17T01:27:55.996Z,98.49
2022-11-17T01:28:06.002Z,98.48
2022-11-17T01:28:16.035Z,98.28
2022-11-17T01:28:25.993Z,98.43
2022-11-17T01:28:36.001Z,98.54
2022-11-17T01:28:46.072Z,98.54
2022-11-17T01:28:56.027Z,98.49
2022-11-17T01:29:06.827Z,98.49
2022-11-17T01:29:16.162Z,98.54
2022-11-17T01:29:26.796Z,98.43
2022-11-17T01:29:35.999Z,98.43
2022-11-17T01:29:45.977Z,98.43
2022-11-17T01:29:55.993Z,98.43
2022-11-17T01:30:05.999Z,98.43
2022-11-17T01:30:15.982Z,98.43
2022-11-17T01:30:25.996Z,98.39
2022-11-17T01:30:36.026Z,98.22
2022-11-17T01:30:45.987Z,98.39
2022-11-17T01:30:56.004Z,98.33
2022-11-17T01:31:05.976Z,98.43
2022-11-17T01:31:16.869Z,98.33
2022-11-17T01:31:25.986Z,98.48
2022-11-17T01:31:36.022Z,98.33
2022-11-17T01:31:46.849Z,98.18
2022-11-17T01:31:55.988Z,98.28
2022-11-17T01:32:06.063Z,98.18
2022-11-17T01:32:15.991Z,98.22
2022-11-17T01:32:25.990Z,98.33
2022-11-17T01:32:36.022Z,98.39
2022-11-17T01:32:45.968Z,98.33
2022-11-17T01:32:55.986Z,98.33
2022-11-17T01:33:05.966Z,98.39
2022-11-17T01:33:17.795Z,98.39
2022-11-17T01:33:26.098Z,98.49
2022-11-17T01:33:36.348Z,98.39
2022-11-17T01:33:45.970Z,98.43
2022-11-17T01:33:55.995Z,98.22
2022-11-17T01:34:05.976Z,98.33
2022-11-17T01:34:15.989Z,98.43
2022-11-17T01:34:25.992Z,98.39
2022-11-17T01:34:36.012Z,98.54
2022-11-17T01:34:45.992Z,98.28
2022-11-17T01:34:55.981Z,98.49
2022-11-17T01:35:05.961Z,98.54
2022-11-17T01:35:15.969Z,98.33
2022-11-17T01:35:26.838Z,98.33
2022-11-17T01:35:35.960Z,98.49
2022-11-17T01:35:45.998Z,98.28
2022-11-17T01:35:55.959Z,98.33
2022-11-17T01:36:05.959Z,98.39
2022-11-17T01:36:16.895Z,98.28
2022-11-17T01:36:26.005Z,98.22
2022-11-17T01:36:35.964Z,98.03
2022-11-17T01:36:45.957Z,97.97
2022-11-17T01:36:55.963Z,97.77
2022-11-17T01:37:05.955Z,97.77
2022-11-17T01:37:16.027Z,97.81
2022-11-17T01:37:25.960Z,97.81
2022-11-17T01:37:36.057Z,97.77
2022-11-17T01:37:45.960Z,97.81
2022-11-17T01:37:55.960Z,97.66
2022-11-17T01:38:05.949Z,97.60
2022-11-17T01:38:15.992Z,97.56
2022-11-17T01:38:25.948Z,97.56
2022-11-17T01:38:35.963Z,97.77
2022-11-17T01:38:45.975Z,97.56
2022-11-17T01:38:55.973Z,97.71
2022-11-17T01:39:05.955Z,97.81
2022-11-17T01:39:15.941Z,97.56
2022-11-17T01:39:25.940Z,97.60
2022-11-17T01:39:36.885Z,97.72
2022-11-17T01:39:45.941Z,97.81
2022-11-17T01:39:56.858Z,97.77
2022-11-17T01:40:05.946Z,97.77
2022-11-17T01:40:15.946Z,97.77
2022-11-17T01:40:25.948Z,97.56
2022-11-17T01:40:36.032Z,97.77
2022-11-17T01:40:45.934Z,97.81
2022-11-17T01:40:55.983Z,97.56
2022-11-17T01:41:06.009Z,97.77
2022-11-17T01:41:15.993Z,97.71
2022-11-17T01:41:25.931Z,97.66
2022-11-17T01:41:36.841Z,97.52
2022-11-17T01:41:46.044Z,97.56
2022-11-17T01:41:55.940Z,97.66
2022-11-17T01:42:05.926Z,97.52
2022-11-17T01:42:15.943Z,97.77
2022-11-17T01:42:25.949Z,97.52
2022-11-17T01:42:35.929Z,97.56
2022-11-17T01:42:45.936Z,97.60
2022-11-17T01:42:55.964Z,97.25
2022-11-17T01:43:06.026Z,97.35
2022-11-17T01:43:15.935Z,97.31
2022-11-17T01:43:26.038Z,97.25
2022-11-17T01:43:37.296Z,97.14
2022-11-17T01:43:46.092Z,97.14
2022-11-17T01:43:55.930Z,97.29
2022-11-17T01:44:06.004Z,97.14
2022-11-17T01:44:15.924Z,97.25
2022-11-17T01:44:25.941Z,97.25
2022-11-17T01:44:35.932Z,97.10
2022-11-17T01:44:45.929Z,97.29
2022-11-17T01:44:55.992Z,97.25
2022-11-17T01:45:05.918Z,97.25
2022-11-17T01:45:15.935Z,97.29
2022-11-17T01:45:25.963Z,96.94
2022-11-17T01:45:35.913Z,96.83
2022-11-17T01:45:46.840Z,96.94
2022-11-17T01:45:56.059Z,96.94
2022-11-17T01:46:05.974Z,96.94
2022-11-17T01:46:15.917Z,96.94
2022-11-17T01:46:25.919Z,96.73
2022-11-17T01:46:35.924Z,96.83
2022-11-17T01:46:46.830Z,96.78
2022-11-17T01:47:00.781Z,96.73
2022-11-17T01:47:05.920Z,96.62
2022-11-17T01:47:15.921Z,96.48
2022-11-17T01:47:25.926Z,96.62
2022-11-17T01:47:35.977Z,96.62
2022-11-17T01:47:45.930Z,96.52
2022-11-17T01:47:56.835Z,96.48
2022-11-17T01:48:05.906Z,96.52
2022-11-17T01:48:15.911Z,96.52
2022-11-17T01:48:25.907Z,96.52
2022-11-17T01:48:35.908Z,96.52
2022-11-17T01:48:45.918Z,96.57
2022-11-17T01:48:56.801Z,96.52
2022-11-17T01:49:05.922Z,96.58
2022-11-17T01:49:15.919Z,96.52
2022-11-17T01:49:25.908Z,96.52
2022-11-17T01:49:36.844Z,96.42
2022-11-17T01:49:45.923Z,96.31
2022-11-17T01:49:56.832Z,96.21
2022-11-17T01:50:05.902Z,96.15
2022-11-17T01:50:15.909Z,96.21
2022-11-17T01:50:25.900Z,96.11
2022-11-17T01:50:35.911Z,96.11
2022-11-17T01:50:45.903Z,96.11
2022-11-17T01:50:55.909Z,96.11
2022-11-17T01:51:05.938Z,96.11
2022-11-17T01:51:15.944Z,96.11
2022-11-17T01:51:25.911Z,96.21
2022-11-17T01:51:35.904Z,96.21
2022-11-17T01:51:45.897Z,96.21
2022-11-17T01:51:55.944Z,96.31
2022-11-17T01:52:05.963Z,96.31
2022-11-17T01:52:15.899Z,96.31
2022-11-17T01:52:26.250Z,96.31
2022-11-17T01:52:35.887Z,96.47
2022-11-17T01:52:45.896Z,96.31
2022-11-17T01:52:55.925Z,96.36
2022-11-17T01:53:06.872Z,96.26
2022-11-17T01:53:15.891Z,96.31
2022-11-17T01:53:25.904Z,96.42
2022-11-17T01:53:36.199Z,96.42
2022-11-17T01:53:45.897Z,96.42
2022-11-17T01:53:56.855Z,96.42
2022-11-17T01:54:06.883Z,96.52
2022-11-17T01:54:15.898Z,96.42
2022-11-17T01:54:25.891Z,96.42
2022-11-17T01:54:35.882Z,96.62
2022-11-17T01:54:45.995Z,96.42
2022-11-17T01:54:55.883Z,96.42
2022-11-17T01:55:05.879Z,96.47
2022-11-17T01:55:16.018Z,96.37
2022-11-17T01:55:25.891Z,96.52
2022-11-17T01:55:35.878Z,96.52
2022-11-17T01:55:45.878Z,96.52
2022-11-17T01:55:55.916Z,96.42
2022-11-17T01:56:05.892Z,96.52
2022-11-17T01:56:15.967Z,96.48
2022-11-17T01:56:25.935Z,96.52
2022-11-17T01:56:35.872Z,96.62
2022-11-17T01:56:45.928Z,96.67
2022-11-17T01:56:55.872Z,96.52
2022-11-17T01:57:05.879Z,96.62
2022-11-17T01:57:15.880Z,96.62
2022-11-17T01:57:25.875Z,96.62
2022-11-17T01:57:35.888Z,96.57
2022-11-17T01:57:45.875Z,96.62
2022-11-17T01:57:55.872Z,96.52
2022-11-17T01:58:05.887Z,96.62
2022-11-17T01:58:16.040Z,96.52
2022-11-17T01:58:25.871Z,96.42
2022-11-17T01:58:35.992Z,96.31
2022-11-17T01:58:45.950Z,96.31
2022-11-17T01:58:55.863Z,96.11
2022-11-17T01:59:05.884Z,96.11
2022-11-17T01:59:15.863Z,96.21
2022-11-17T01:59:25.867Z,96.21
2022-11-17T01:59:35.861Z,96.11
2022-11-17T01:59:45.862Z,96.17
2022-11-17T01:59:55.856Z,96.21
2022-11-17T02:00:05.873Z,96.27
2022-11-17T02:00:15.875Z,96.21
2022-11-17T02:00:25.859Z,96.31
2022-11-17T02:00:35.852Z,96.31
2022-11-17T02:00:45.853Z,96.31
2022-11-17T02:00:55.863Z,96.31
2022-11-17T02:01:07.010Z,96.21
2022-11-17T02:01:16.850Z,96.15
2022-11-17T02:01:25.930Z,96.01
2022-11-17T02:01:36.041Z,96.01
2022-11-17T02:01:45.889Z,95.90
2022-11-17T02:01:56.163Z,95.90
2022-11-17T02:02:05.914Z,96.01
2022-11-17T02:02:15.876Z,96.15
2022-11-17T02:02:25.933Z,96.11
2022-11-17T02:02:35.844Z,96.11
2022-11-17T02:02:45.856Z,96.11
2022-11-17T02:02:55.857Z,96.11
2022-11-17T02:03:05.852Z,96.01
2022-11-17T02:03:15.857Z,96.01
2022-11-17T02:03:25.846Z,96.11
2022-11-17T02:03:36.095Z,96.11
2022-11-17T02:03:45.847Z,96.01
2022-11-17T02:03:55.840Z,96.05
2022-11-17T02:04:05.842Z,95.90
2022-11-17T02:04:15.879Z,95.84
2022-11-17T02:04:25.872Z,95.95
2022-11-17T02:04:35.848Z,95.90
2022-11-17T02:04:45.856Z,95.90
2022-11-17T02:04:55.852Z,96.11
2022-11-17T02:05:05.946Z,96.11
2022-11-17T02:05:15.855Z,96.21
2022-11-17T02:05:25.857Z,96.26
2022-11-17T02:05:35.836Z,96.26
2022-11-17T02:05:45.891Z,96.31
2022-11-17T02:05:55.836Z,96.31
2022-11-17T02:06:05.842Z,96.37
2022-11-17T02:06:15.837Z,96.47
2022-11-17T02:06:25.920Z,96.31
2022-11-17T02:06:35.883Z,96.42
2022-11-17T02:06:45.990Z,96.31
2022-11-17T02:06:55.852Z,96.42
2022-11-17T02:07:05.901Z,96.42
2022-11-17T02:07:15.906Z,96.42
2022-11-17T02:07:25.931Z,96.42
2022-11-17T02:07:35.924Z,96.42
2022-11-17T02:07:45.840Z,96.52
2022-11-17T02:07:55.838Z,96.47
2022-11-17T02:08:05.842Z,96.42
2022-11-17T02:08:15.842Z,96.36
2022-11-17T02:08:25.913Z,96.21
2022-11-17T02:08:36.356Z,96.01
2022-11-17T02:08:45.979Z,96.05